Etretat — FIDP — position and weather

sailwx.info

Track history (hours):
 
Tides and Currents Weather Stations Pressure Air Temp Water Temp Dewpoint Dewpoint Depression Visibility Wind Speed Wind Dir Waves Ship Positions

Etretat

Last reported at 2016-Jun-26 13:33 UTC. Time now 2016-Jun-26 13:49 UTC.
Position N 49°29' E 000°07'.

Length 187 m; draft 6 m.

Type: Ship. MMSI: 228022900.

Date/timePositionNaut miles runAvg speedWind from/ knotsBaromVisibWave heightAir tempDewpointWater temp
2016-Jun-26 13:33N 49°29' E 000°07'0 0.0
2016-Jun-26 12:33N 49°29' E 000°07'0 0.0
2016-Jun-26 11:33N 49°29' E 000°07'0 0.0
2016-Jun-26 10:33N 49°29' E 000°07'0 0.0
2016-Jun-26 09:33N 49°29' E 000°07'0 0.0
2016-Jun-26 08:33N 49°29' E 000°07'0 0.0
2016-Jun-26 07:33N 49°29' E 000°07'0 0.0
2016-Jun-26 06:33N 49°29' E 000°07'9 9.1
2016-Jun-26 05:33N 49°35' W 000°04'4 4.2
2016-Jun-26 04:33N 49°39' W 000°06'1312.7
2016-Jun-26 03:33N 49°50' W 000°15'1514.6
2016-Jun-26 02:33N 50°03' W 000°25'1915.1
2016-Jun-26 01:19N 50°19' W 000°39'1114.9
2016-Jun-26 00:33N 50°29' W 000°48'1514.7
2016-Jun-25 23:33N 50°42' W 000°58'8 8.2
2016-Jun-25 22:34N 50°48' W 001°07'1 0.7
2016-Jun-25 21:33N 50°49' W 001°06'1 0.6
2016-Jun-25 20:33N 50°49' W 001°07'1010.1
2016-Jun-25 19:33N 50°41' W 000°57'2019.7
2016-Jun-25 18:33N 50°23' W 000°43'2020.4
2016-Jun-25 17:34N 50°05' W 000°28'2121.1
2016-Jun-25 16:34N 49°46' W 000°13'1919.3
2016-Jun-25 15:33N 49°30' E 000°02'3 2.8
2016-Jun-25 14:33N 49°29' E 000°07'0 0.0
2016-Jun-25 13:33N 49°29' E 000°07'0 0.0
2016-Jun-25 12:34N 49°29' E 000°07'0 0.0
2016-Jun-25 11:33N 49°29' E 000°07'0 0.0
2016-Jun-25 10:34N 49°29' E 000°07'0 0.0
2016-Jun-25 09:33N 49°29' E 000°07'0 0.0
2016-Jun-25 08:34N 49°29' E 000°07'0 0.0
2016-Jun-25 07:33N 49°29' E 000°07'0 0.0
2016-Jun-25 06:33N 49°29' E 000°07'9 8.8
2016-Jun-25 05:33N 49°35' W 000°03'3 3.3
2016-Jun-25 04:33N 49°38' W 000°04'6 5.9
2016-Jun-25 03:33N 49°43' W 000°10'1413.9
2016-Jun-25 02:33N 49°55' W 000°21'1514.4
2016-Jun-25 01:33N 50°07' W 000°33'1614.2
2016-Jun-25 00:24N 50°22' W 000°43'1214.5
2016-Jun-24 23:33N 50°34' W 000°50'1414.0
2016-Jun-24 22:34N 50°44' W 001°04'4 4.4
2016-Jun-24 21:34N 50°49' W 001°06'0 0.0
2016-Jun-24 20:33N 50°49' W 001°06'0 0.0
2016-Jun-24 19:33N 50°49' W 001°06'0 0.0
2016-Jun-24 18:34N 50°49' W 001°06'0 0.0
2016-Jun-24 17:33N 50°49' W 001°06'0 0.0
2016-Jun-24 16:33N 50°49' W 001°06'0 0.0
2016-Jun-24 15:33N 50°49' W 001°06'0 0.0
2016-Jun-24 14:33N 50°49' W 001°06'0 0.0
2016-Jun-24 13:33N 50°49' W 001°06'0 0.0
2016-Jun-24 12:34N 50°49' W 001°06'0 0.0
2016-Jun-24 11:34N 50°49' W 001°06'0 0.0
2016-Jun-24 10:33N 50°49' W 001°06'0 0.0
2016-Jun-24 09:34N 50°49' W 001°06'0 0.0
2016-Jun-24 08:33N 50°49' W 001°06'0 0.0
2016-Jun-24 07:33N 50°49' W 001°06'0 0.0
2016-Jun-24 04:33N 50°49' W 001°06'0 0.0
2016-Jun-24 03:33N 50°49' W 001°06'0 0.0
2016-Jun-24 02:33N 50°49' W 001°06'0 0.0
2016-Jun-24 01:34N 50°49' W 001°06'0 0.0
2016-Jun-24 00:34N 50°49' W 001°06'0 0.0
2016-Jun-23 23:33N 50°49' W 001°06'0 0.0
2016-Jun-23 22:33N 50°49' W 001°06'0 0.0
2016-Jun-23 21:34N 50°49' W 001°06'4 4.3
2016-Jun-23 20:33N 50°44' W 001°05'1110.7
2016-Jun-23 19:34N 50°37' W 000°53'1111.3
2016-Jun-23 18:33N 50°45' W 001°05'4 3.7
2016-Jun-23 17:33N 50°49' W 001°06'0 0.0
2016-Jun-23 16:34N 50°49' W 001°06'0 0.0
2016-Jun-23 15:33N 50°49' W 001°06'0 0.0
2016-Jun-23 14:33N 50°49' W 001°06'0 0.0
2016-Jun-23 13:33N 50°49' W 001°06'0 0.0
2016-Jun-23 12:34N 50°49' W 001°06'0 0.0
2016-Jun-23 11:33N 50°49' W 001°06'0 0.0
2016-Jun-23 10:33N 50°49' W 001°06'0 0.0
2016-Jun-23 09:33N 50°49' W 001°06'0 0.0
2016-Jun-23 08:33N 50°49' W 001°06'0 0.0
2016-Jun-23 07:33N 50°49' W 001°06'0 0.0
2016-Jun-23 05:33N 50°49' W 001°06'0 0.0
2016-Jun-23 04:33N 50°49' W 001°06'0 0.0
2016-Jun-23 03:33N 50°49' W 001°06'0 0.0
2016-Jun-23 02:33N 50°49' W 001°06'0 0.0
2016-Jun-23 01:33N 50°49' W 001°06'0 0.0
2016-Jun-23 00:33N 50°49' W 001°06'0 0.0
2016-Jun-22 23:33N 50°49' W 001°06'0 0.0
2016-Jun-22 22:33N 50°49' W 001°06'0 0.0
2016-Jun-22 21:33N 50°49' W 001°06'0 0.1
2016-Jun-22 20:34N 50°49' W 001°06'1111.1
2016-Jun-22 19:33N 50°40' W 000°56'2321.1
2016-Jun-22 18:29N 50°20' W 000°37'2021.8
2016-Jun-22 17:34N 50°02' W 000°24'2222.0
2016-Jun-22 16:33N 49°42' W 000°08'1716.5
2016-Jun-22 15:34N 49°29' E 000°06'0 0.3
2016-Jun-22 14:33N 49°29' E 000°07'0 0.0
2016-Jun-22 13:33N 49°29' E 000°07'0 0.0
2016-Jun-22 12:33N 49°29' E 000°07'0 0.0
2016-Jun-22 11:33N 49°29' E 000°07'0 0.0
2016-Jun-22 10:33N 49°29' E 000°07'0 0.0
2016-Jun-22 09:33N 49°29' E 000°07'0 0.0
2016-Jun-22 08:33N 49°29' E 000°07'0 0.0
2016-Jun-22 07:33N 49°29' E 000°07'0 0.4
2016-Jun-22 06:33N 49°29' E 000°06'1212.1
2016-Jun-22 05:33N 49°38' W 000°05'1312.8
2016-Jun-22 04:33N 49°50' W 000°14'1312.8
2016-Jun-22 03:33N 50°01' W 000°24'3113.2
2016-Jun-22 01:13N 50°28' W 000°48'1015.4
2016-Jun-22 00:33N 50°37' W 000°54'1313.1
2016-Jun-21 23:33N 50°48' W 001°07'1 1.0
2016-Jun-21 22:34N 50°49' W 001°06'0 0.0
2016-Jun-21 21:33N 50°49' W 001°06'0 0.3
2016-Jun-21 20:33N 50°49' W 001°06'1110.8
2016-Jun-21 19:33N 50°40' W 000°56'2121.1
2016-Jun-21 18:33N 50°21' W 000°41'2222.3
2016-Jun-21 17:33N 50°01' W 000°26'2222.5
2016-Jun-21 16:33N 49°41' W 000°09'1616.1
2016-Jun-21 15:33N 49°29' E 000°07'0 0.0
2016-Jun-21 14:33N 49°29' E 000°07'0 0.0
2016-Jun-21 13:33N 49°29' E 000°07'0 0.0
2016-Jun-21 12:33N 49°29' E 000°07'0 0.0
2016-Jun-21 11:33N 49°29' E 000°07'0 0.0
2016-Jun-21 10:33N 49°29' E 000°07'0 0.0
2016-Jun-21 09:33N 49°29' E 000°07'0 0.0
2016-Jun-21 08:33N 49°29' E 000°07'0 0.0
2016-Jun-21 07:33N 49°29' E 000°07'9 4.6
2016-Jun-21 05:33N 49°36' W 000°03'1312.7
2016-Jun-21 04:33N 49°47' W 000°12'1312.8
2016-Jun-21 03:33N 49°58' W 000°21'1312.8
2016-Jun-21 02:33N 50°10' W 000°31'1815.0
2016-Jun-21 01:19N 50°26' W 000°43'1215.3
2016-Jun-21 00:34N 50°36' W 000°53'1413.5
2016-Jun-20 23:33N 50°47' W 001°06'2 1.8
2016-Jun-20 22:33N 50°49' W 001°06'0 0.0
2016-Jun-20 21:33N 50°49' W 001°06'5 4.8
2016-Jun-20 20:34N 50°44' W 001°04'9 9.3
2016-Jun-20 19:33N 50°37' W 000°54'1818.0
2016-Jun-20 18:33N 50°21' W 000°41'2120.9
2016-Jun-20 17:33N 50°02' W 000°28'2221.6
2016-Jun-20 16:33N 49°43' W 000°11'1818.3
2016-Jun-20 15:33N 49°29' E 000°07'0 0.1
2016-Jun-20 14:34N 49°29' E 000°07'0 0.0
2016-Jun-20 13:33N 49°29' E 000°07'0 0.0
2016-Jun-20 12:33N 49°29' E 000°07'0 0.0
2016-Jun-20 11:33N 49°29' E 000°07'0 0.0
2016-Jun-20 10:33N 49°29' E 000°07'0 0.0
2016-Jun-20 09:33N 49°29' E 000°07'0 0.0
2016-Jun-20 08:33N 49°29' E 000°07'0 0.0
2016-Jun-20 07:33N 49°29' E 000°07'0 0.0
2016-Jun-20 06:33N 49°29' E 000°07'9 8.8
2016-Jun-20 05:34N 49°35' W 000°03'1111.4
2016-Jun-20 04:34N 49°46' W 000°11'1111.2
2016-Jun-20 03:34N 49°55' W 000°19'1111.4
2016-Jun-20 02:33N 50°06' W 000°27'2813.9
2016-Jun-20 00:33N 50°29' W 000°50'1514.5
2016-Jun-19 23:33N 50°43' W 000°59'7 7.4
2016-Jun-19 22:33N 50°49' W 001°06'0 0.0
2016-Jun-19 21:33N 50°49' W 001°06'1 1.2
2016-Jun-19 20:33N 50°48' W 001°07'1110.6
2016-Jun-19 19:34N 50°40' W 000°56'2520.2
2016-Jun-19 18:21N 50°18' W 000°36'1620.6
2016-Jun-19 17:34N 50°03' W 000°29'2120.7
2016-Jun-19 16:34N 49°45' W 000°13'1919.1
2016-Jun-19 15:33N 49°29' E 000°04'2 1.5
2016-Jun-19 14:33N 49°29' E 000°07'0 0.0
2016-Jun-19 13:33N 49°29' E 000°07'0 0.0
2016-Jun-19 12:33N 49°29' E 000°07'0 0.0
2016-Jun-19 11:33N 49°29' E 000°07'0 0.0
2016-Jun-19 10:33N 49°29' E 000°07'0 0.0
2016-Jun-19 09:33N 49°29' E 000°07'0 0.0
2016-Jun-19 08:33N 49°29' E 000°07'0 0.0
2016-Jun-19 07:33N 49°29' E 000°07'0 0.0
2016-Jun-19 06:33N 49°29' E 000°07'9 9.0
2016-Jun-19 05:33N 49°36' W 000°03'1211.9
2016-Jun-19 04:33N 49°46' W 000°11'1211.7
2016-Jun-19 03:33N 49°56' W 000°20'1212.0
2016-Jun-19 02:33N 50°07' W 000°29'1212.2
2016-Jun-19 01:33N 50°18' W 000°38'1515.4
2016-Jun-19 00:33N 50°32' W 000°48'1414.4
2016-Jun-18 23:33N 50°43' W 001°01'6 6.0
2016-Jun-18 22:33N 50°49' W 001°06'0 0.0
2016-Jun-18 21:33N 50°49' W 001°06'3 2.9
2016-Jun-18 20:33N 50°46' W 001°05'8 8.5
2016-Jun-18 19:33N 50°40' W 000°56'2320.4
2016-Jun-18 18:27N 50°20' W 000°37'1820.7
2016-Jun-18 17:34N 50°04' W 000°24'2020.5
2016-Jun-18 16:33N 49°46' W 000°10'1919.0
2016-Jun-18 15:33N 49°29' E 000°05'1 1.2
2016-Jun-18 14:33N 49°29' E 000°07'0 0.0
2016-Jun-18 13:33N 49°29' E 000°07'0 0.0
2016-Jun-18 12:33N 49°29' E 000°07'0 0.0
2016-Jun-18 11:33N 49°29' E 000°07'0 0.0
2016-Jun-18 10:33N 49°29' E 000°07'0 0.0
2016-Jun-18 09:33N 49°29' E 000°07'0 0.0
2016-Jun-18 08:33N 49°29' E 000°07'0 0.0
2016-Jun-18 07:33N 49°29' E 000°07'0 0.0
2016-Jun-18 06:33N 49°29' E 000°07'8 8.5
2016-Jun-18 05:34N 49°36' W 000°01'7 6.6
2016-Jun-18 04:33N 49°42' W 000°06'6 5.7
2016-Jun-18 03:34N 49°46' W 000°11'1313.4
2016-Jun-18 02:34N 49°58' W 000°22'1412.8
2016-Jun-18 01:29N 50°09' W 000°33'2015.4
2016-Jun-18 00:10N 50°28' W 000°47'1016.1
2016-Jun-17 23:33N 50°36' W 000°54'1313.2
2016-Jun-17 22:33N 50°47' W 001°06'2 1.7
2016-Jun-17 21:33N 50°49' W 001°06'0 0.0
2016-Jun-17 20:33N 50°49' W 001°06'0 0.0
2016-Jun-17 19:33N 50°49' W 001°06'0 0.0
2016-Jun-17 18:34N 50°49' W 001°06'0 0.0
2016-Jun-17 17:33N 50°49' W 001°06'0 0.0
2016-Jun-17 16:33N 50°49' W 001°06'0 0.0
2016-Jun-17 15:33N 50°49' W 001°06'0 0.0
2016-Jun-17 14:33N 50°49' W 001°06'0 0.0
2016-Jun-17 13:34N 50°49' W 001°06'0 0.0
2016-Jun-17 12:33N 50°49' W 001°06'0 0.0
2016-Jun-17 11:33N 50°49' W 001°06'0 0.0
2016-Jun-17 10:33N 50°49' W 001°06'0 0.0
2016-Jun-17 09:33N 50°49' W 001°06'0 0.0
2016-Jun-17 08:33N 50°49' W 001°06'0 0.0
2016-Jun-17 07:33N 50°49' W 001°06'0 0.0
2016-Jun-17 06:33N 50°49' W 001°06'4 4.1
2016-Jun-17 05:33N 50°45' W 001°05'1717.0
2016-Jun-17 04:33N 50°32' W 000°46'1616.2
2016-Jun-17 03:33N 50°18' W 000°36'1615.9
2016-Jun-17 02:33N 50°04' W 000°23'1615.8
2016-Jun-17 01:33N 49°49' W 000°14'9 9.2
2016-Jun-17 00:34N 49°42' W 000°05'1 0.7
2016-Jun-16 23:33N 49°43' W 000°05'0 0.4
2016-Jun-16 22:34N 49°43' W 000°06'2 1.5
2016-Jun-16 21:33N 49°42' W 000°06'1111.1
2016-Jun-16 20:33N 49°31' E 000°00'5 4.6
2016-Jun-16 19:33N 49°29' E 000°07'0 0.0
2016-Jun-16 18:33N 49°29' E 000°07'0 0.0
2016-Jun-16 17:33N 49°29' E 000°07'0 0.0
2016-Jun-16 16:33N 49°29' E 000°07'0 0.0
2016-Jun-16 15:33N 49°29' E 000°07'0 0.0
2016-Jun-16 14:33N 49°29' E 000°07'0 0.0
2016-Jun-16 13:33N 49°29' E 000°07'  
Track history (hours):
 
Tides and Currents Weather Stations Pressure Air Temp Water Temp Dewpoint Dewpoint Depression Visibility Wind Speed Wind Dir Waves Ship Positions

Etretat

Last reported at 2016-Jun-26 13:33 UTC. Time now 2016-Jun-26 13:49 UTC.
Position N 49°29' E 000°07'.

Length 187 m; draft 6 m.

Type: Ship. MMSI: 228022900.

Date/timePositionNaut miles runAvg speedWind from/ knotsBaromVisibWave heightAir tempDewpointWater temp
2016-Jun-26 13:33N 49°29' E 000°07'0 0.0
2016-Jun-26 12:33N 49°29' E 000°07'0 0.0
2016-Jun-26 11:33N 49°29' E 000°07'0 0.0
2016-Jun-26 10:33N 49°29' E 000°07'0 0.0
2016-Jun-26 09:33N 49°29' E 000°07'0 0.0
2016-Jun-26 08:33N 49°29' E 000°07'0 0.0
2016-Jun-26 07:33N 49°29' E 000°07'0 0.0
2016-Jun-26 06:33N 49°29' E 000°07'9 9.1
2016-Jun-26 05:33N 49°35' W 000°04'4 4.2
2016-Jun-26 04:33N 49°39' W 000°06'1312.7
2016-Jun-26 03:33N 49°50' W 000°15'1514.6
2016-Jun-26 02:33N 50°03' W 000°25'1915.1
2016-Jun-26 01:19N 50°19' W 000°39'1114.9
2016-Jun-26 00:33N 50°29' W 000°48'1514.7
2016-Jun-25 23:33N 50°42' W 000°58'8 8.2
2016-Jun-25 22:34N 50°48' W 001°07'1 0.7
2016-Jun-25 21:33N 50°49' W 001°06'1 0.6
2016-Jun-25 20:33N 50°49' W 001°07'1010.1
2016-Jun-25 19:33N 50°41' W 000°57'2019.7
2016-Jun-25 18:33N 50°23' W 000°43'2020.4
2016-Jun-25 17:34N 50°05' W 000°28'2121.1
2016-Jun-25 16:34N 49°46' W 000°13'1919.3
2016-Jun-25 15:33N 49°30' E 000°02'3 2.8
2016-Jun-25 14:33N 49°29' E 000°07'0 0.0
2016-Jun-25 13:33N 49°29' E 000°07'0 0.0
2016-Jun-25 12:34N 49°29' E 000°07'0 0.0
2016-Jun-25 11:33N 49°29' E 000°07'0 0.0
2016-Jun-25 10:34N 49°29' E 000°07'0 0.0
2016-Jun-25 09:33N 49°29' E 000°07'0 0.0
2016-Jun-25 08:34N 49°29' E 000°07'0 0.0
2016-Jun-25 07:33N 49°29' E 000°07'0 0.0
2016-Jun-25 06:33N 49°29' E 000°07'9 8.8
2016-Jun-25 05:33N 49°35' W 000°03'3 3.3
2016-Jun-25 04:33N 49°38' W 000°04'6 5.9
2016-Jun-25 03:33N 49°43' W 000°10'1413.9
2016-Jun-25 02:33N 49°55' W 000°21'1514.4
2016-Jun-25 01:33N 50°07' W 000°33'1614.2
2016-Jun-25 00:24N 50°22' W 000°43'1214.5
2016-Jun-24 23:33N 50°34' W 000°50'1414.0
2016-Jun-24 22:34N 50°44' W 001°04'4 4.4
2016-Jun-24 21:34N 50°49' W 001°06'0 0.0
2016-Jun-24 20:33N 50°49' W 001°06'0 0.0
2016-Jun-24 19:33N 50°49' W 001°06'0 0.0
2016-Jun-24 18:34N 50°49' W 001°06'0 0.0
2016-Jun-24 17:33N 50°49' W 001°06'0 0.0
2016-Jun-24 16:33N 50°49' W 001°06'0 0.0
2016-Jun-24 15:33N 50°49' W 001°06'0 0.0
2016-Jun-24 14:33N 50°49' W 001°06'0 0.0
2016-Jun-24 13:33N 50°49' W 001°06'0 0.0
2016-Jun-24 12:34N 50°49' W 001°06'0 0.0
2016-Jun-24 11:34N 50°49' W 001°06'0 0.0
2016-Jun-24 10:33N 50°49' W 001°06'0 0.0
2016-Jun-24 09:34N 50°49' W 001°06'0 0.0
2016-Jun-24 08:33N 50°49' W 001°06'0 0.0
2016-Jun-24 07:33N 50°49' W 001°06'0 0.0
2016-Jun-24 04:33N 50°49' W 001°06'0 0.0
2016-Jun-24 03:33N 50°49' W 001°06'0 0.0
2016-Jun-24 02:33N 50°49' W 001°06'0 0.0
2016-Jun-24 01:34N 50°49' W 001°06'0 0.0
2016-Jun-24 00:34N 50°49' W 001°06'0 0.0
2016-Jun-23 23:33N 50°49' W 001°06'0 0.0
2016-Jun-23 22:33N 50°49' W 001°06'0 0.0
2016-Jun-23 21:34N 50°49' W 001°06'4 4.3
2016-Jun-23 20:33N 50°44' W 001°05'1110.7
2016-Jun-23 19:34N 50°37' W 000°53'1111.3
2016-Jun-23 18:33N 50°45' W 001°05'4 3.7
2016-Jun-23 17:33N 50°49' W 001°06'0 0.0
2016-Jun-23 16:34N 50°49' W 001°06'0 0.0
2016-Jun-23 15:33N 50°49' W 001°06'0 0.0
2016-Jun-23 14:33N 50°49' W 001°06'0 0.0
2016-Jun-23 13:33N 50°49' W 001°06'0 0.0
2016-Jun-23 12:34N 50°49' W 001°06'0 0.0
2016-Jun-23 11:33N 50°49' W 001°06'0 0.0
2016-Jun-23 10:33N 50°49' W 001°06'0 0.0
2016-Jun-23 09:33N 50°49' W 001°06'0 0.0
2016-Jun-23 08:33N 50°49' W 001°06'0 0.0
2016-Jun-23 07:33N 50°49' W 001°06'0 0.0
2016-Jun-23 05:33N 50°49' W 001°06'0 0.0
2016-Jun-23 04:33N 50°49' W 001°06'0 0.0
2016-Jun-23 03:33N 50°49' W 001°06'0 0.0
2016-Jun-23 02:33N 50°49' W 001°06'0 0.0
2016-Jun-23 01:33N 50°49' W 001°06'0 0.0
2016-Jun-23 00:33N 50°49' W 001°06'0 0.0
2016-Jun-22 23:33N 50°49' W 001°06'0 0.0
2016-Jun-22 22:33N 50°49' W 001°06'0 0.0
2016-Jun-22 21:33N 50°49' W 001°06'0 0.1
2016-Jun-22 20:34N 50°49' W 001°06'1111.1
2016-Jun-22 19:33N 50°40' W 000°56'2321.1
2016-Jun-22 18:29N 50°20' W 000°37'2021.8
2016-Jun-22 17:34N 50°02' W 000°24'2222.0
2016-Jun-22 16:33N 49°42' W 000°08'1716.5
2016-Jun-22 15:34N 49°29' E 000°06'0 0.3
2016-Jun-22 14:33N 49°29' E 000°07'0 0.0
2016-Jun-22 13:33N 49°29' E 000°07'0 0.0
2016-Jun-22 12:33N 49°29' E 000°07'0 0.0
2016-Jun-22 11:33N 49°29' E 000°07'0 0.0
2016-Jun-22 10:33N 49°29' E 000°07'0 0.0
2016-Jun-22 09:33N 49°29' E 000°07'0 0.0
2016-Jun-22 08:33N 49°29' E 000°07'0 0.0
2016-Jun-22 07:33N 49°29' E 000°07'0 0.4
2016-Jun-22 06:33N 49°29' E 000°06'1212.1
2016-Jun-22 05:33N 49°38' W 000°05'1312.8
2016-Jun-22 04:33N 49°50' W 000°14'1312.8
2016-Jun-22 03:33N 50°01' W 000°24'3113.2
2016-Jun-22 01:13N 50°28' W 000°48'1015.4
2016-Jun-22 00:33N 50°37' W 000°54'1313.1
2016-Jun-21 23:33N 50°48' W 001°07'1 1.0
2016-Jun-21 22:34N 50°49' W 001°06'0 0.0
2016-Jun-21 21:33N 50°49' W 001°06'0 0.3
2016-Jun-21 20:33N 50°49' W 001°06'1110.8
2016-Jun-21 19:33N 50°40' W 000°56'2121.1
2016-Jun-21 18:33N 50°21' W 000°41'2222.3
2016-Jun-21 17:33N 50°01' W 000°26'2222.5
2016-Jun-21 16:33N 49°41' W 000°09'1616.1
2016-Jun-21 15:33N 49°29' E 000°07'0 0.0
2016-Jun-21 14:33N 49°29' E 000°07'0 0.0
2016-Jun-21 13:33N 49°29' E 000°07'0 0.0
2016-Jun-21 12:33N 49°29' E 000°07'0 0.0
2016-Jun-21 11:33N 49°29' E 000°07'0 0.0
2016-Jun-21 10:33N 49°29' E 000°07'0 0.0
2016-Jun-21 09:33N 49°29' E 000°07'0 0.0
2016-Jun-21 08:33N 49°29' E 000°07'0 0.0
2016-Jun-21 07:33N 49°29' E 000°07'9 4.6
2016-Jun-21 05:33N 49°36' W 000°03'1312.7
2016-Jun-21 04:33N 49°47' W 000°12'1312.8
2016-Jun-21 03:33N 49°58' W 000°21'1312.8
2016-Jun-21 02:33N 50°10' W 000°31'1815.0
2016-Jun-21 01:19N 50°26' W 000°43'1215.3
2016-Jun-21 00:34N 50°36' W 000°53'1413.5
2016-Jun-20 23:33N 50°47' W 001°06'2 1.8
2016-Jun-20 22:33N 50°49' W 001°06'0 0.0
2016-Jun-20 21:33N 50°49' W 001°06'5 4.8
2016-Jun-20 20:34N 50°44' W 001°04'9 9.3
2016-Jun-20 19:33N 50°37' W 000°54'1818.0
2016-Jun-20 18:33N 50°21' W 000°41'2120.9
2016-Jun-20 17:33N 50°02' W 000°28'2221.6
2016-Jun-20 16:33N 49°43' W 000°11'1818.3
2016-Jun-20 15:33N 49°29' E 000°07'0 0.1
2016-Jun-20 14:34N 49°29' E 000°07'0 0.0
2016-Jun-20 13:33N 49°29' E 000°07'0 0.0
2016-Jun-20 12:33N 49°29' E 000°07'0 0.0
2016-Jun-20 11:33N 49°29' E 000°07'0 0.0
2016-Jun-20 10:33N 49°29' E 000°07'0 0.0
2016-Jun-20 09:33N 49°29' E 000°07'0 0.0
2016-Jun-20 08:33N 49°29' E 000°07'0 0.0
2016-Jun-20 07:33N 49°29' E 000°07'0 0.0
2016-Jun-20 06:33N 49°29' E 000°07'9 8.8
2016-Jun-20 05:34N 49°35' W 000°03'1111.4
2016-Jun-20 04:34N 49°46' W 000°11'1111.2
2016-Jun-20 03:34N 49°55' W 000°19'1111.4
2016-Jun-20 02:33N 50°06' W 000°27'2813.9
2016-Jun-20 00:33N 50°29' W 000°50'1514.5
2016-Jun-19 23:33N 50°43' W 000°59'7 7.4
2016-Jun-19 22:33N 50°49' W 001°06'0 0.0
2016-Jun-19 21:33N 50°49' W 001°06'1 1.2
2016-Jun-19 20:33N 50°48' W 001°07'1110.6
2016-Jun-19 19:34N 50°40' W 000°56'2520.2
2016-Jun-19 18:21N 50°18' W 000°36'1620.6
2016-Jun-19 17:34N 50°03' W 000°29'2120.7
2016-Jun-19 16:34N 49°45' W 000°13'1919.1
2016-Jun-19 15:33N 49°29' E 000°04'2 1.5
2016-Jun-19 14:33N 49°29' E 000°07'0 0.0
2016-Jun-19 13:33N 49°29' E 000°07'0 0.0
2016-Jun-19 12:33N 49°29' E 000°07'0 0.0
2016-Jun-19 11:33N 49°29' E 000°07'0 0.0
2016-Jun-19 10:33N 49°29' E 000°07'0 0.0
2016-Jun-19 09:33N 49°29' E 000°07'0 0.0
2016-Jun-19 08:33N 49°29' E 000°07'0 0.0
2016-Jun-19 07:33N 49°29' E 000°07'0 0.0
2016-Jun-19 06:33N 49°29' E 000°07'9 9.0
2016-Jun-19 05:33N 49°36' W 000°03'1211.9
2016-Jun-19 04:33N 49°46' W 000°11'1211.7
2016-Jun-19 03:33N 49°56' W 000°20'1212.0
2016-Jun-19 02:33N 50°07' W 000°29'1212.2
2016-Jun-19 01:33N 50°18' W 000°38'1515.4
2016-Jun-19 00:33N 50°32' W 000°48'1414.4
2016-Jun-18 23:33N 50°43' W 001°01'6 6.0
2016-Jun-18 22:33N 50°49' W 001°06'0 0.0
2016-Jun-18 21:33N 50°49' W 001°06'3 2.9
2016-Jun-18 20:33N 50°46' W 001°05'8 8.5
2016-Jun-18 19:33N 50°40' W 000°56'2320.4
2016-Jun-18 18:27N 50°20' W 000°37'1820.7
2016-Jun-18 17:34N 50°04' W 000°24'2020.5
2016-Jun-18 16:33N 49°46' W 000°10'1919.0
2016-Jun-18 15:33N 49°29' E 000°05'1 1.2
2016-Jun-18 14:33N 49°29' E 000°07'0 0.0
2016-Jun-18 13:33N 49°29' E 000°07'0 0.0
2016-Jun-18 12:33N 49°29' E 000°07'0 0.0
2016-Jun-18 11:33N 49°29' E 000°07'0 0.0
2016-Jun-18 10:33N 49°29' E 000°07'0 0.0
2016-Jun-18 09:33N 49°29' E 000°07'0 0.0
2016-Jun-18 08:33N 49°29' E 000°07'0 0.0
2016-Jun-18 07:33N 49°29' E 000°07'0 0.0
2016-Jun-18 06:33N 49°29' E 000°07'8 8.5
2016-Jun-18 05:34N 49°36' W 000°01'7 6.6
2016-Jun-18 04:33N 49°42' W 000°06'6 5.7
2016-Jun-18 03:34N 49°46' W 000°11'1313.4
2016-Jun-18 02:34N 49°58' W 000°22'1412.8
2016-Jun-18 01:29N 50°09' W 000°33'2015.4
2016-Jun-18 00:10N 50°28' W 000°47'1016.1
2016-Jun-17 23:33N 50°36' W 000°54'1313.2
2016-Jun-17 22:33N 50°47' W 001°06'2 1.7
2016-Jun-17 21:33N 50°49' W 001°06'0 0.0
2016-Jun-17 20:33N 50°49' W 001°06'0 0.0
2016-Jun-17 19:33N 50°49' W 001°06'0 0.0
2016-Jun-17 18:34N 50°49' W 001°06'0 0.0
2016-Jun-17 17:33N 50°49' W 001°06'0 0.0
2016-Jun-17 16:33N 50°49' W 001°06'0 0.0
2016-Jun-17 15:33N 50°49' W 001°06'0 0.0
2016-Jun-17 14:33N 50°49' W 001°06'0 0.0
2016-Jun-17 13:34N 50°49' W 001°06'0 0.0
2016-Jun-17 12:33N 50°49' W 001°06'0 0.0
2016-Jun-17 11:33N 50°49' W 001°06'0 0.0
2016-Jun-17 10:33N 50°49' W 001°06'0 0.0
2016-Jun-17 09:33N 50°49' W 001°06'0 0.0
2016-Jun-17 08:33N 50°49' W 001°06'0 0.0
2016-Jun-17 07:33N 50°49' W 001°06'0 0.0
2016-Jun-17 06:33N 50°49' W 001°06'4 4.1
2016-Jun-17 05:33N 50°45' W 001°05'1717.0
2016-Jun-17 04:33N 50°32' W 000°46'1616.2
2016-Jun-17 03:33N 50°18' W 000°36'1615.9
2016-Jun-17 02:33N 50°04' W 000°23'1615.8
2016-Jun-17 01:33N 49°49' W 000°14'9 9.2
2016-Jun-17 00:34N 49°42' W 000°05'1 0.7
2016-Jun-16 23:33N 49°43' W 000°05'0 0.4
2016-Jun-16 22:34N 49°43' W 000°06'2 1.5
2016-Jun-16 21:33N 49°42' W 000°06'1111.1
2016-Jun-16 20:33N 49°31' E 000°00'5 4.6
2016-Jun-16 19:33N 49°29' E 000°07'0 0.0
2016-Jun-16 18:33N 49°29' E 000°07'0 0.0
2016-Jun-16 17:33N 49°29' E 000°07'0 0.0
2016-Jun-16 16:33N 49°29' E 000°07'0 0.0
2016-Jun-16 15:33N 49°29' E 000°07'0 0.0
2016-Jun-16 14:33N 49°29' E 000°07'0 0.0
2016-Jun-16 13:33N 49°29' E 000°07'  

Dump ship's entire track history